Time;durP1;ratioP1;P1;durP2;ratioP2;P2;SDS_P1;SDS_P2;PMS_P1;PMS_P2;Temp;Humidity;BMP_temperature;BMP_pressure;BME280_temperature;BME280_humidity;BME280_pressure;Samples;Min_cycle;Max_cycle;Signal;HPM_P1;HPM_P2
2023/05/20 00:00:58;;;;;;;2.42;1.20;;;;;;;;;;4945960;28;102040;-82
2023/05/20 00:03:24;;;;;;;3.53;1.38;;;;;;;;;;4946897;28;98252;-82
2023/05/20 00:05:51;;;;;;;2.47;1.35;;;;;;;;;;4947377;28;99154;-82
2023/05/20 00:08:18;;;;;;;3.25;1.58;;;;;;;;;;4948367;28;98675;-82
2023/05/20 00:10:44;;;;;;;3.35;1.48;;;;;;;;;;4948030;28;99858;-82
2023/05/20 00:13:11;;;;;;;2.65;1.40;;;;;;;;;;4950016;28;98970;-82
2023/05/20 00:15:37;;;;;;;2.85;1.50;;;;;;;;;;4948915;28;98648;-83
2023/05/20 00:18:04;;;;;;;2.90;1.40;;;;;;;;;;4953344;28;99151;-83
2023/05/20 00:20:31;;;;;;;3.05;1.42;;;;;;;;;;4952532;28;98615;-82
2023/05/20 00:22:58;;;;;;;2.85;1.70;;;;;;;;;;4948106;28;98739;-83
2023/05/20 00:25:25;;;;;;;3.72;1.50;;;;;;;;;;4949125;28;98666;-82
2023/05/20 00:27:51;;;;;;;3.13;1.52;;;;;;;;;;4946471;28;99517;-84
2023/05/20 00:30:18;;;;;;;4.18;1.63;;;;;;;;;;4947199;28;100573;-83
2023/05/20 00:32:45;;;;;;;2.95;1.50;;;;;;;;;;4943129;28;98990;-83
2023/05/20 00:35:11;;;;;;;4.05;1.40;;;;;;;;;;4945443;28;99949;-82
2023/05/20 00:37:38;;;;;;;2.60;1.25;;;;;;;;;;4944918;28;102019;-82
2023/05/20 00:40:05;;;;;;;3.67;1.50;;;;;;;;;;4949327;28;99027;-83
2023/05/20 00:42:32;;;;;;;3.80;1.65;;;;;;;;;;4945989;28;99219;-82
2023/05/20 00:44:59;;;;;;;3.45;1.52;;;;;;;;;;4946488;28;98653;-83
2023/05/20 00:47:27;;;;;;;1.52;1.30;;;;;;;;;;4949136;28;99888;-83
2023/05/20 00:49:54;;;;;;;3.60;1.40;;;;;;;;;;4951231;28;99326;-83
2023/05/20 00:52:21;;;;;;;2.58;1.40;;;;;;;;;;4950519;28;98410;-85
2023/05/20 00:54:48;;;;;;;2.80;1.38;;;;;;;;;;4945340;28;99317;-83
2023/05/20 00:57:15;;;;;;;2.90;1.40;;;;;;;;;;4946736;28;101172;-82
2023/05/20 00:59:41;;;;;;;3.60;1.40;;;;;;;;;;4931166;28;99989;-81
2023/05/20 01:02:10;;;;;;;3.08;1.27;;;;;;;;;;4967769;28;100019;-82
2023/05/20 01:04:37;;;;;;;3.28;1.40;;;;;;;;;;4979585;28;98713;-81
2023/05/20 01:07:05;;;;;;;3.45;1.58;;;;;;;;;;4968820;28;99311;-82
2023/05/20 01:09:32;;;;;;;3.40;1.60;;;;;;;;;;4957232;28;99908;-81
2023/05/20 01:12:08;;;;;;;4.30;1.40;;;;;;;;;;4962912;28;98579;-82
2023/05/20 01:14:36;;;;;;;2.90;1.40;;;;;;;;;;4967194;28;98670;-81
2023/05/20 01:17:09;;;;;;;3.45;1.48;;;;;;;;;;4965869;28;99337;-82
2023/05/20 01:19:36;;;;;;;;;;;;;;;;;;4966892;28;98548;-83
2023/05/20 01:22:04;;;;;;;3.13;1.38;;;;;;;;;;4964992;28;106785;-81
2023/05/20 01:24:31;;;;;;;3.17;1.70;;;;;;;;;;4960364;28;99699;-81
2023/05/20 01:26:58;;;;;;;3.92;1.40;;;;;;;;;;4964164;28;102090;-81
2023/05/20 01:29:25;;;;;;;3.13;1.60;;;;;;;;;;4959441;28;99171;-82
2023/05/20 01:31:54;;;;;;;3.95;1.50;;;;;;;;;;4954329;28;99005;-82
2023/05/20 01:34:21;;;;;;;3.33;1.40;;;;;;;;;;4944898;28;99109;-82
2023/05/20 01:36:48;;;;;;;2.72;1.30;;;;;;;;;;4961633;28;100745;-81
2023/05/20 01:39:16;;;;;;;2.53;1.55;;;;;;;;;;4952815;28;98498;-82
2023/05/20 01:41:44;;;;;;;3.00;1.75;;;;;;;;;;4961410;28;101608;-82
2023/05/20 01:44:10;;;;;;;;;;;;;;;;;;4969512;28;99602;-82
2023/05/20 01:46:37;;;;;;;3.10;1.33;;;;;;;;;;4964921;28;100634;-81
2023/05/20 01:49:03;;;;;;;2.35;1.30;;;;;;;;;;4963297;28;102433;-83
2023/05/20 01:51:32;;;;;;;2.90;1.48;;;;;;;;;;4955908;28;98630;-81
2023/05/20 01:53:59;;;;;;;3.88;1.52;;;;;;;;;;4957255;28;100287;-82
2023/05/20 01:56:25;;;;;;;3.03;1.40;;;;;;;;;;4955771;28;99270;-82
2023/05/20 01:58:52;;;;;;;3.22;1.60;;;;;;;;;;4943234;28;98715;-82
2023/05/20 02:01:19;;;;;;;4.13;1.40;;;;;;;;;;4944873;28;98856;-82
2023/05/20 02:03:45;;;;;;;3.33;1.50;;;;;;;;;;4945680;28;99073;-82
2023/05/20 02:06:12;;;;;;;2.38;1.27;;;;;;;;;;4949550;28;98198;-81
2023/05/20 02:08:39;;;;;;;3.53;1.40;;;;;;;;;;4943450;28;102067;-82
2023/05/20 02:11:05;;;;;;;3.13;1.45;;;;;;;;;;4941134;28;98703;-81
2023/05/20 02:13:32;;;;;;;3.00;1.42;;;;;;;;;;4963553;28;99592;-82
2023/05/20 02:15:58;;;;;;;3.25;1.55;;;;;;;;;;4963352;28;99651;-82
2023/05/20 02:18:25;;;;;;;3.55;1.40;;;;;;;;;;4965887;28;99252;-82
2023/05/20 02:20:52;;;;;;;3.92;1.40;;;;;;;;;;4962888;28;100807;-82
2023/05/20 02:23:19;;;;;;;3.50;1.60;;;;;;;;;;4962689;28;101899;-81
2023/05/20 02:25:45;;;;;;;3.70;1.40;;;;;;;;;;4957873;28;98570;-82
2023/05/20 02:28:12;;;;;;;4.18;1.45;;;;;;;;;;4966235;28;99938;-81
2023/05/20 02:30:39;;;;;;;4.47;1.58;;;;;;;;;;4964685;28;97903;-81
2023/05/20 02:33:05;;;;;;;3.35;1.40;;;;;;;;;;4964021;28;99254;-81
2023/05/20 02:35:32;;;;;;;3.00;1.33;;;;;;;;;;4947030;28;102148;-82
2023/05/20 02:37:59;;;;;;;3.08;1.40;;;;;;;;;;4961536;28;101181;-81
2023/05/20 02:40:26;;;;;;;3.50;1.70;;;;;;;;;;4961024;28;102000;-82
2023/05/20 02:42:52;;;;;;;3.30;1.20;;;;;;;;;;4943791;28;99150;-81
2023/05/20 02:45:19;;;;;;;3.13;1.30;;;;;;;;;;4945605;28;98601;-82
2023/05/20 02:47:46;;;;;;;3.38;1.50;;;;;;;;;;4945544;28;99428;-82
2023/05/20 02:50:12;;;;;;;2.97;1.60;;;;;;;;;;4948044;28;99291;-83
2023/05/20 02:52:41;;;;;;;3.25;1.50;;;;;;;;;;4958895;28;101829;-81
2023/05/20 02:55:08;;;;;;;3.72;1.60;;;;;;;;;;4938595;28;101034;-82
2023/05/20 02:57:37;;;;;;;2.95;1.38;;;;;;;;;;4954180;28;98656;-81
2023/05/20 03:00:09;;;;;;;3.08;1.50;;;;;;;;;;4965626;28;101677;-82
2023/05/20 03:02:36;;;;;;;3.50;1.63;;;;;;;;;;4970783;28;99738;-81
2023/05/20 03:05:04;;;;;;;2.55;1.40;;;;;;;;;;4976548;28;98554;-81
2023/05/20 03:07:33;;;;;;;3.00;1.60;;;;;;;;;;4966491;28;98647;-83
2023/05/20 03:10:01;;;;;;;2.40;1.50;;;;;;;;;;4956268;28;102401;-82
2023/05/20 03:12:28;;;;;;;3.33;1.60;;;;;;;;;;4960428;28;98617;-83
2023/05/20 03:14:55;;;;;;;3.08;1.40;;;;;;;;;;4967443;28;103690;-82
2023/05/20 03:17:21;;;;;;;3.60;1.50;;;;;;;;;;4966742;28;98608;-81
2023/05/20 03:19:48;;;;;;;2.85;1.33;;;;;;;;;;4968413;28;99007;-81
2023/05/20 03:22:15;;;;;;;2.38;1.50;;;;;;;;;;4966374;28;102158;-82
2023/05/20 03:24:43;;;;;;;3.13;1.67;;;;;;;;;;4965830;28;99483;-81
2023/05/20 03:27:11;;;;;;;3.78;1.52;;;;;;;;;;4951071;28;101264;-81
2023/05/20 03:29:38;;;;;;;3.58;1.60;;;;;;;;;;4969388;28;99154;-82
2023/05/20 03:32:07;;;;;;;2.20;1.35;;;;;;;;;;4970628;28;99165;-82
2023/05/20 03:34:37;;;;;;;3.20;1.67;;;;;;;;;;4952394;28;101933;-81
2023/05/20 03:37:03;;;;;;;;;;;;;;;;;;4966339;28;99169;-83
2023/05/20 03:39:30;;;;;;;2.70;1.40;;;;;;;;;;4959908;28;101492;-82
2023/05/20 03:41:56;;;;;;;4.03;1.70;;;;;;;;;;4946572;28;100327;-82
2023/05/20 03:44:23;;;;;;;4.07;1.60;;;;;;;;;;4966408;28;97889;-82
2023/05/20 03:46:49;;;;;;;2.28;1.40;;;;;;;;;;4965756;28;100742;-83
2023/05/20 03:49:16;;;;;;;2.45;1.40;;;;;;;;;;4965546;28;101606;-82
2023/05/20 03:51:43;;;;;;;2.75;1.40;;;;;;;;;;4965404;28;99398;-82
2023/05/20 03:54:11;;;;;;;3.25;1.33;;;;;;;;;;4966899;28;100369;-82
2023/05/20 03:56:38;;;;;;;3.28;1.27;;;;;;;;;;4949456;28;99030;-81
2023/05/20 03:59:05;;;;;;;3.17;1.50;;;;;;;;;;4963406;28;101076;-82
2023/05/20 04:01:32;;;;;;;3.17;1.40;;;;;;;;;;4965012;28;100372;-82
2023/05/20 04:03:59;;;;;;;3.05;1.40;;;;;;;;;;4947219;28;98667;-82
2023/05/20 04:06:26;;;;;;;2.75;1.52;;;;;;;;;;4966628;28;100100;-82
2023/05/20 04:08:54;;;;;;;3.33;1.23;;;;;;;;;;4965050;28;104895;-82
2023/05/20 04:11:21;;;;;;;2.80;1.60;;;;;;;;;;4963120;28;98631;-82
2023/05/20 04:13:47;;;;;;;2.28;1.23;;;;;;;;;;4954785;28;98920;-81
2023/05/20 04:16:14;;;;;;;3.38;1.50;;;;;;;;;;4948841;28;102625;-82
2023/05/20 04:18:41;;;;;;;3.22;1.30;;;;;;;;;;4945628;28;99440;-82
2023/05/20 04:21:07;;;;;;;3.30;1.40;;;;;;;;;;4945558;28;101935;-82
2023/05/20 04:23:34;;;;;;;3.25;1.38;;;;;;;;;;4948097;28;98972;-82
2023/05/20 04:26:01;;;;;;;3.08;1.60;;;;;;;;;;4945460;28;101522;-83
2023/05/20 04:28:32;;;;;;;3.70;1.30;;;;;;;;;;4944335;28;100190;-81
2023/05/20 04:30:59;;;;;;;2.10;1.35;;;;;;;;;;4945578;28;99099;-81
2023/05/20 04:33:26;;;;;;;3.33;1.30;;;;;;;;;;4945984;28;101977;-82
2023/05/20 04:35:56;;;;;;;3.33;1.40;;;;;;;;;;4944937;28;101686;-82
2023/05/20 04:38:28;;;;;;;3.53;1.40;;;;;;;;;;4948373;28;99062;-81
2023/05/20 04:40:56;;;;;;;2.95;1.40;;;;;;;;;;4944161;28;106729;-82
2023/05/20 04:43:24;;;;;;;3.28;1.45;;;;;;;;;;4944935;28;98626;-82
2023/05/20 04:45:53;;;;;;;2.72;1.35;;;;;;;;;;4943743;28;100280;-82
2023/05/20 04:48:21;;;;;;;2.70;1.30;;;;;;;;;;4944814;28;101384;-81
2023/05/20 04:50:48;;;;;;;3.50;1.40;;;;;;;;;;4930968;28;99027;-82
2023/05/20 04:53:15;;;;;;;2.85;1.35;;;;;;;;;;4946356;28;101767;-82
2023/05/20 04:55:44;;;;;;;2.55;1.35;;;;;;;;;;4946440;28;98927;-82
2023/05/20 04:58:14;;;;;;;3.45;1.70;;;;;;;;;;4945808;28;98248;-82
2023/05/20 05:00:41;;;;;;;2.58;1.50;;;;;;;;;;4949137;28;98760;-82
2023/05/20 05:03:07;;;;;;;3.30;1.30;;;;;;;;;;4945356;28;98854;-82
2023/05/20 05:05:35;;;;;;;2.83;1.20;;;;;;;;;;4945392;28;102034;-81
2023/05/20 05:08:02;;;;;;;3.25;1.35;;;;;;;;;;4944970;28;100736;-82
2023/05/20 05:10:32;;;;;;;2.67;1.30;;;;;;;;;;4943920;28;99626;-81
2023/05/20 05:12:58;;;;;;;3.67;1.60;;;;;;;;;;4943489;28;101703;-81
2023/05/20 05:15:25;;;;;;;2.97;1.35;;;;;;;;;;4944795;28;101259;-82
2023/05/20 05:17:52;;;;;;;2.58;1.30;;;;;;;;;;4955521;28;99219;-81
2023/05/20 05:20:19;;;;;;;3.25;1.33;;;;;;;;;;4967280;28;99922;-82
2023/05/20 05:22:45;;;;;;;3.85;1.40;;;;;;;;;;4969386;28;98561;-82
2023/05/20 05:25:12;;;;;;;2.72;1.40;;;;;;;;;;4953425;28;101144;-81
2023/05/20 05:27:39;;;;;;;2.75;1.40;;;;;;;;;;4950957;28;101677;-82
2023/05/20 05:30:06;;;;;;;4.28;1.50;;;;;;;;;;4964699;28;99826;-82
2023/05/20 05:32:33;;;;;;;2.85;1.48;;;;;;;;;;4963983;28;102053;-81
2023/05/20 05:35:00;;;;;;;4.20;1.50;;;;;;;;;;4962311;28;99438;-81
2023/05/20 05:37:27;;;;;;;3.13;1.33;;;;;;;;;;4920469;28;98994;-81
2023/05/20 05:39:53;;;;;;;2.97;1.50;;;;;;;;;;4946779;28;102094;-82
2023/05/20 05:42:20;;;;;;;2.55;1.40;;;;;;;;;;4948982;28;101848;-82
2023/05/20 05:44:47;;;;;;;3.22;1.38;;;;;;;;;;4946213;28;99240;-81
2023/05/20 05:47:15;;;;;;;3.35;1.25;;;;;;;;;;4945085;28;101075;-82
2023/05/20 05:49:42;;;;;;;3.17;1.40;;;;;;;;;;4944485;28;98577;-82
2023/05/20 05:52:09;;;;;;;3.42;1.40;;;;;;;;;;4944598;28;105739;-81
2023/05/20 05:54:35;;;;;;;2.28;1.30;;;;;;;;;;4943394;28;102321;-81
2023/05/20 05:57:02;;;;;;;5.15;1.60;;;;;;;;;;4944556;28;98530;-81
2023/05/20 05:59:31;;;;;;;2.25;1.27;;;;;;;;;;4946160;28;98769;-81
2023/05/20 06:01:58;;;;;;;3.13;1.42;;;;;;;;;;4944186;28;101115;-81
2023/05/20 06:04:25;;;;;;;3.05;1.42;;;;;;;;;;4947703;28;98546;-82
2023/05/20 06:06:54;;;;;;;2.75;1.38;;;;;;;;;;4963566;28;107300;-82
2023/05/20 06:09:21;;;;;;;3.13;1.50;;;;;;;;;;4960359;28;98546;-81
2023/05/20 06:11:47;;;;;;;2.92;1.60;;;;;;;;;;4957070;28;101465;-83
2023/05/20 06:14:17;;;;;;;3.67;1.38;;;;;;;;;;4944280;28;99350;-81
2023/05/20 06:16:43;;;;;;;2.80;1.40;;;;;;;;;;4927224;28;99190;-83
2023/05/20 06:19:10;;;;;;;3.25;1.52;;;;;;;;;;4945833;28;99147;-82
2023/05/20 06:21:38;;;;;;;3.13;1.40;;;;;;;;;;4944204;28;102362;-80
2023/05/20 06:24:04;;;;;;;3.75;1.40;;;;;;;;;;4944258;28;98611;-81
2023/05/20 06:26:33;;;;;;;2.33;1.30;;;;;;;;;;4930529;28;101059;-80
2023/05/20 06:29:00;;;;;;;3.10;1.30;;;;;;;;;;4928489;28;98494;-82
2023/05/20 06:31:28;;;;;;;2.50;1.40;;;;;;;;;;4946815;28;99334;-82
2023/05/20 06:33:56;;;;;;;2.38;1.30;;;;;;;;;;4945313;28;101015;-83
2023/05/20 06:36:22;;;;;;;3.60;1.50;;;;;;;;;;4945363;28;97890;-82
2023/05/20 06:38:49;;;;;;;2.85;1.30;;;;;;;;;;4929216;28;99189;-82
2023/05/20 06:41:16;;;;;;;4.07;1.73;;;;;;;;;;4947176;28;101971;-82
2023/05/20 06:43:42;;;;;;;3.25;1.48;;;;;;;;;;4947673;28;99567;-82
2023/05/20 06:46:27;;;;;;;2.80;1.30;;;;;;;;;;4949153;28;99130;-82
2023/05/20 06:48:59;;;;;;;2.97;1.30;;;;;;;;;;4950585;28;106725;-81
2023/05/20 06:51:27;;;;;;;2.50;1.45;;;;;;;;;;4947060;28;101256;-82
2023/05/20 06:53:54;;;;;;;2.75;1.40;;;;;;;;;;4947086;28;101495;-82
2023/05/20 06:56:21;;;;;;;2.88;1.50;;;;;;;;;;4947486;28;98621;-82
2023/05/20 06:58:47;;;;;;;3.22;1.65;;;;;;;;;;4967032;28;100674;-83
2023/05/20 07:01:14;;;;;;;4.35;1.40;;;;;;;;;;4954775;28;100864;-81
2023/05/20 07:03:44;;;;;;;2.90;1.42;;;;;;;;;;4965266;28;98577;-82
2023/05/20 07:06:11;;;;;;;2.50;1.40;;;;;;;;;;4972077;28;101704;-81
2023/05/20 07:08:38;;;;;;;3.30;1.40;;;;;;;;;;4971043;28;101436;-80
2023/05/20 07:11:04;;;;;;;3.08;1.20;;;;;;;;;;4971728;28;98528;-81
2023/05/20 07:13:31;;;;;;;2.75;1.40;;;;;;;;;;4963003;28;101882;-82
2023/05/20 07:15:58;;;;;;;2.28;1.30;;;;;;;;;;4956581;28;101498;-81
2023/05/20 07:18:25;;;;;;;2.92;1.40;;;;;;;;;;4954256;28;101376;-81
2023/05/20 07:20:55;;;;;;;2.80;1.25;;;;;;;;;;4953909;28;104663;-81
2023/05/20 07:23:45;;;;;;;2.22;1.30;;;;;;;;;;4952682;28;98618;-82
2023/05/20 07:26:11;;;;;;;3.15;1.38;;;;;;;;;;4950074;28;98046;-82
2023/05/20 07:28:38;;;;;;;3.20;1.33;;;;;;;;;;4964142;28;102155;-81
2023/05/20 07:31:05;;;;;;;2.83;1.23;;;;;;;;;;4971277;28;99023;-81
2023/05/20 07:33:37;;;;;;;2.30;1.20;;;;;;;;;;4965960;28;100288;-82
2023/05/20 07:36:04;;;;;;;3.58;1.50;;;;;;;;;;4948526;28;105418;-81
2023/05/20 07:38:31;;;;;;;3.00;1.50;;;;;;;;;;4946051;28;101741;-81
2023/05/20 07:40:59;;;;;;;3.40;1.42;;;;;;;;;;4946101;28;101942;-82
2023/05/20 07:43:26;;;;;;;3.47;1.40;;;;;;;;;;4947238;28;99006;-82
2023/05/20 07:45:53;;;;;;;2.75;1.30;;;;;;;;;;4930443;28;101008;-82
2023/05/20 07:48:19;;;;;;;3.03;1.50;;;;;;;;;;4946738;28;102063;-82
2023/05/20 07:50:46;;;;;;;3.05;1.60;;;;;;;;;;4950472;28;97833;-82
2023/05/20 07:53:13;;;;;;;3.47;1.50;;;;;;;;;;4950751;28;100559;-82
2023/05/20 07:55:39;;;;;;;3.60;1.45;;;;;;;;;;4947946;28;98559;-80
2023/05/20 07:58:06;;;;;;;2.38;1.27;;;;;;;;;;4950407;28;101494;-82
2023/05/20 08:00:34;;;;;;;3.30;1.50;;;;;;;;;;4945933;28;104585;-82
2023/05/20 08:03:06;;;;;;;3.28;1.30;;;;;;;;;;4966872;28;98583;-82
2023/05/20 08:05:53;;;;;;;3.03;1.40;;;;;;;;;;4966701;28;101566;-82
2023/05/20 08:08:20;;;;;;;2.28;1.38;;;;;;;;;;4969504;28;99003;-82
2023/05/20 08:10:52;;;;;;;2.78;1.40;;;;;;;;;;4960379;28;98758;-82
2023/05/20 08:13:22;;;;;;;2.25;1.40;;;;;;;;;;4953757;28;99877;-82
2023/05/20 08:15:51;;;;;;;2.05;1.40;;;;;;;;;;4974475;28;100846;-82
2023/05/20 08:18:17;;;;;;;3.15;1.65;;;;;;;;;;4969696;28;99497;-82
2023/05/20 08:20:44;;;;;;;2.05;1.10;;;;;;;;;;4967928;28;101777;-82
2023/05/20 08:23:11;;;;;;;2.22;1.30;;;;;;;;;;4965685;28;99645;-82
2023/05/20 08:25:37;;;;;;;2.65;1.40;;;;;;;;;;4967721;28;99717;-82
2023/05/20 08:28:06;;;;;;;2.65;1.30;;;;;;;;;;4964561;28;102213;-83
2023/05/20 08:30:35;;;;;;;2.65;1.60;;;;;;;;;;4950637;28;98959;-82
2023/05/20 08:33:03;;;;;;;3.13;1.50;;;;;;;;;;4964899;28;100435;-82
2023/05/20 08:35:30;;;;;;;2.30;1.42;;;;;;;;;;4965856;28;101697;-83
2023/05/20 08:37:57;;;;;;;2.63;1.30;;;;;;;;;;4970355;28;98717;-83
2023/05/20 08:40:25;;;;;;;2.15;1.13;;;;;;;;;;4965188;28;100948;-82
2023/05/20 08:42:52;;;;;;;2.25;1.20;;;;;;;;;;4966016;28;98624;-82
2023/05/20 08:45:22;;;;;;;4.10;1.42;;;;;;;;;;4965026;28;101437;-83
2023/05/20 08:47:49;;;;;;;3.13;1.33;;;;;;;;;;4964169;28;100863;-82
2023/05/20 08:50:16;;;;;;;3.60;1.48;;;;;;;;;;4967071;28;99019;-82
2023/05/20 08:52:44;;;;;;;2.05;1.30;;;;;;;;;;4964310;28;100876;-83
2023/05/20 08:55:16;;;;;;;1.60;1.20;;;;;;;;;;4954823;28;102464;-81
2023/05/20 08:57:44;;;;;;;2.55;1.20;;;;;;;;;;4953811;28;98560;-81
2023/05/20 09:00:12;;;;;;;2.03;1.20;;;;;;;;;;4974643;28;98767;-81
2023/05/20 09:02:39;;;;;;;2.10;1.10;;;;;;;;;;4944902;28;98859;-82
2023/05/20 09:05:06;;;;;;;2.38;1.20;;;;;;;;;;4965364;28;100760;-82
2023/05/20 09:07:32;;;;;;;2.35;1.10;;;;;;;;;;4964030;28;101654;-82
2023/05/20 09:09:59;;;;;;;1.92;1.20;;;;;;;;;;4946052;28;98719;-82
2023/05/20 09:12:26;;;;;;;2.78;1.10;;;;;;;;;;4948381;28;99401;-81
2023/05/20 09:14:52;;;;;;;1.98;1.15;;;;;;;;;;4964047;28;99381;-81
2023/05/20 09:17:20;;;;;;;2.72;1.20;;;;;;;;;;4966799;28;99930;-81
2023/05/20 09:19:48;;;;;;;2.20;1.20;;;;;;;;;;4966436;28;98777;-81
2023/05/20 09:22:26;;;;;;;2.47;1.20;;;;;;;;;;4969105;28;98992;-82
2023/05/20 09:24:52;;;;;;;2.47;1.20;;;;;;;;;;4963314;28;99497;-80
2023/05/20 09:27:20;;;;;;;1.92;1.10;;;;;;;;;;4963019;28;98971;-80
2023/05/20 09:29:47;;;;;;;3.30;1.30;;;;;;;;;;4958874;28;97958;-81
2023/05/20 09:32:14;;;;;;;2.60;1.15;;;;;;;;;;4968668;28;99250;-81
2023/05/20 09:34:41;;;;;;;2.08;1.10;;;;;;;;;;4943262;28;102669;-80
2023/05/20 09:37:09;;;;;;;2.25;1.20;;;;;;;;;;4968011;28;99295;-81
2023/05/20 09:39:56;;;;;;;2.55;1.23;;;;;;;;;;4962529;28;99864;-81
2023/05/20 09:42:25;;;;;;;1.83;1.10;;;;;;;;;;4952316;28;99272;-81
2023/05/20 09:44:53;;;;;;;2.97;1.08;;;;;;;;;;4968936;28;98504;-81
2023/05/20 09:47:19;;;;;;;2.58;1.02;;;;;;;;;;4966136;28;98955;-81
2023/05/20 09:49:46;;;;;;;1.73;1.05;;;;;;;;;;4964870;28;99116;-81
2023/05/20 09:52:14;;;;;;;2.15;1.20;;;;;;;;;;4966381;28;98649;-82
2023/05/20 09:54:41;;;;;;;1.90;1.00;;;;;;;;;;4957784;28;98443;-80
2023/05/20 09:57:08;;;;;;;;;;;;;;;;;;4972906;28;99074;-80
2023/05/20 09:59:37;;;;;;;2.58;1.00;;;;;;;;;;4968003;28;101881;-81
2023/05/20 10:02:05;;;;;;;1.63;1.13;;;;;;;;;;4950522;28;102552;-80
2023/05/20 10:04:33;;;;;;;2.10;1.20;;;;;;;;;;4947535;28;98649;-80
2023/05/20 10:07:25;;;;;;;2.33;1.10;;;;;;;;;;4953480;28;99162;-80
2023/05/20 10:10:15;;;;;;;1.63;1.10;;;;;;;;;;4957301;28;98591;-79
2023/05/20 10:12:46;;;;;;;1.48;1.00;;;;;;;;;;4961687;28;98859;-80
2023/05/20 10:15:12;;;;;;;1.60;1.00;;;;;;;;;;4945700;28;99033;-80
2023/05/20 10:17:42;;;;;;;1.55;1.00;;;;;;;;;;4946664;28;99530;-81
2023/05/20 10:20:10;;;;;;;2.38;1.05;;;;;;;;;;4946221;28;99252;-81
2023/05/20 10:22:39;;;;;;;2.03;1.00;;;;;;;;;;4941994;28;102295;-80
2023/05/20 10:25:06;;;;;;;2.15;1.10;;;;;;;;;;4944483;28;98580;-80
2023/05/20 10:27:44;;;;;;;2.17;1.00;;;;;;;;;;4947878;28;99857;-82
2023/05/20 10:30:14;;;;;;;2.00;1.08;;;;;;;;;;4947958;28;99368;-80
2023/05/20 10:32:47;;;;;;;1.15;0.90;;;;;;;;;;4944838;28;99980;-81
2023/05/20 10:35:20;;;;;;;2.30;1.17;;;;;;;;;;4946179;28;99579;-81
2023/05/20 10:37:47;;;;;;;1.30;1.00;;;;;;;;;;4945152;28;98858;-81
2023/05/20 10:40:15;;;;;;;1.63;0.95;;;;;;;;;;4943764;28;101505;-81
2023/05/20 10:42:43;;;;;;;1.13;0.90;;;;;;;;;;4942501;28;99235;-80
2023/05/20 10:45:11;;;;;;;2.08;1.10;;;;;;;;;;4944729;28;97966;-82
2023/05/20 10:47:52;;;;;;;1.60;1.00;;;;;;;;;;4945358;28;98482;-80
2023/05/20 10:50:26;;;;;;;2.50;1.10;;;;;;;;;;4948255;28;99293;-81
2023/05/20 10:52:53;;;;;;;1.30;0.98;;;;;;;;;;4943182;28;99277;-82
2023/05/20 10:55:21;;;;;;;1.42;1.10;;;;;;;;;;4938410;28;99346;-80
2023/05/20 10:57:47;;;;;;;2.03;1.00;;;;;;;;;;4953557;28;98598;-81
2023/05/20 11:00:15;;;;;;;1.60;1.05;;;;;;;;;;4945180;28;100441;-80
2023/05/20 11:02:41;;;;;;;1.77;0.98;;;;;;;;;;4942638;28;99044;-82
2023/05/20 11:05:10;;;;;;;1.90;1.00;;;;;;;;;;4947284;28;99211;-82
2023/05/20 11:07:36;;;;;;;1.67;1.00;;;;;;;;;;4945799;28;98727;-82
2023/05/20 11:10:06;;;;;;;1.83;1.02;;;;;;;;;;4946038;28;98477;-81
2023/05/20 11:12:33;;;;;;;2.30;1.13;;;;;;;;;;4947412;28;98917;-81
2023/05/20 11:15:00;;;;;;;2.60;1.10;;;;;;;;;;4943559;28;100043;-81
2023/05/20 11:17:26;;;;;;;2.17;1.15;;;;;;;;;;4944874;28;99763;-82
2023/05/20 11:19:53;;;;;;;1.35;0.95;;;;;;;;;;4945712;28;100536;-82
2023/05/20 11:22:19;;;;;;;1.40;0.90;;;;;;;;;;4948269;28;100066;-81
2023/05/20 11:24:46;;;;;;;1.52;1.00;;;;;;;;;;4942725;28;98733;-82
2023/05/20 11:27:13;;;;;;;1.98;1.00;;;;;;;;;;4948555;28;99411;-80
2023/05/20 11:29:39;;;;;;;2.58;1.20;;;;;;;;;;4946394;28;101921;-82
2023/05/20 11:32:06;;;;;;;1.73;1.05;;;;;;;;;;4945387;28;99148;-81
2023/05/20 11:34:34;;;;;;;1.75;0.90;;;;;;;;;;4947660;28;97777;-81
2023/05/20 11:37:01;;;;;;;1.17;1.00;;;;;;;;;;4947990;28;98635;-81
2023/05/20 11:39:28;;;;;;;;;;;;;;;;;;4950235;28;99411;-81
2023/05/20 11:41:55;;;;;;;1.02;0.82;;;;;;;;;;4948516;28;117328;-81
2023/05/20 11:44:21;;;;;;;1.25;0.90;;;;;;;;;;4948184;28;98705;-82
2023/05/20 11:46:48;;;;;;;2.50;0.90;;;;;;;;;;4946924;28;98816;-81
2023/05/20 11:49:14;;;;;;;1.45;1.00;;;;;;;;;;4947766;28;100220;-81
2023/05/20 11:51:44;;;;;;;1.15;0.85;;;;;;;;;;4948337;28;98931;-81
2023/05/20 11:54:10;;;;;;;1.38;0.90;;;;;;;;;;4951502;28;98647;-82
2023/05/20 11:56:38;;;;;;;1.65;0.93;;;;;;;;;;4947039;28;98749;-81
2023/05/20 11:59:04;;;;;;;;;;;;;;;;;;4949021;28;98626;-82
2023/05/20 12:01:41;;;;;;;2.38;0.90;;;;;;;;;;4947722;28;124141;-81
2023/05/20 12:04:08;;;;;;;2.08;0.90;;;;;;;;;;4946498;28;98681;-81
2023/05/20 12:06:38;;;;;;;1.98;1.00;;;;;;;;;;4947194;28;99494;-81
2023/05/20 12:09:06;;;;;;;1.40;0.90;;;;;;;;;;4948463;28;99763;-81
2023/05/20 12:11:36;;;;;;;1.60;0.85;;;;;;;;;;4947418;28;99160;-81
2023/05/20 12:14:03;;;;;;;1.63;0.93;;;;;;;;;;4944471;28;98852;-82
2023/05/20 12:16:30;;;;;;;1.85;0.90;;;;;;;;;;4937546;28;99699;-80
2023/05/20 12:18:57;;;;;;;;;;;;;;;;;;4945492;28;101521;-82
2023/05/20 12:21:23;;;;;;;1.70;0.90;;;;;;;;;;4948178;28;99033;-81
2023/05/20 12:23:56;;;;;;;1.33;0.90;;;;;;;;;;4948218;28;97931;-82
2023/05/20 12:26:23;;;;;;;1.35;0.95;;;;;;;;;;4946205;28;98589;-82
2023/05/20 12:28:50;;;;;;;1.10;0.80;;;;;;;;;;4945406;28;100263;-82
2023/05/20 12:31:16;;;;;;;1.30;0.90;;;;;;;;;;4945894;28;99341;-81
2023/05/20 12:33:43;;;;;;;1.13;0.90;;;;;;;;;;4946993;28;99566;-82
2023/05/20 12:36:10;;;;;;;1.77;1.00;;;;;;;;;;4948263;28;99706;-81
2023/05/20 12:38:36;;;;;;;1.60;1.00;;;;;;;;;;4952413;28;98556;-82
2023/05/20 12:41:03;;;;;;;1.80;1.00;;;;;;;;;;4945933;28;99602;-81
2023/05/20 12:43:29;;;;;;;2.58;1.08;;;;;;;;;;4946544;28;98942;-82
2023/05/20 12:45:56;;;;;;;1.65;0.98;;;;;;;;;;4946222;28;98841;-81
2023/05/20 12:48:24;;;;;;;1.13;1.00;;;;;;;;;;4936126;28;100871;-83
2023/05/20 12:50:51;;;;;;;1.58;1.00;;;;;;;;;;4946990;28;98818;-81
2023/05/20 12:53:18;;;;;;;1.55;0.93;;;;;;;;;;4946658;28;99785;-81
2023/05/20 12:55:45;;;;;;;1.65;1.00;;;;;;;;;;4946075;28;100328;-82
2023/05/20 12:58:11;;;;;;;1.48;0.90;;;;;;;;;;4946256;28;98534;-81
2023/05/20 13:00:38;;;;;;;1.98;0.95;;;;;;;;;;4948743;28;99193;-81
2023/05/20 13:03:04;;;;;;;1.58;0.95;;;;;;;;;;4946949;28;98596;-82
2023/05/20 13:05:31;;;;;;;3.70;1.10;;;;;;;;;;4946860;28;98654;-83
2023/05/20 13:07:58;;;;;;;2.40;0.98;;;;;;;;;;4945608;28;99650;-82
2023/05/20 13:10:25;;;;;;;2.08;0.90;;;;;;;;;;4946014;28;99140;-83
2023/05/20 13:12:52;;;;;;;1.50;0.90;;;;;;;;;;4945849;28;99278;-81
2023/05/20 13:15:18;;;;;;;2.80;1.00;;;;;;;;;;4947224;28;101300;-81
2023/05/20 13:17:45;;;;;;;1.05;0.88;;;;;;;;;;4946574;28;98890;-81
2023/05/20 13:20:12;;;;;;;2.55;0.90;;;;;;;;;;4945950;28;99183;-82
2023/05/20 13:22:38;;;;;;;1.27;0.90;;;;;;;;;;4947845;28;99148;-82
2023/05/20 13:25:05;;;;;;;1.73;0.93;;;;;;;;;;4942197;28;99155;-82
2023/05/20 13:27:32;;;;;;;1.27;0.90;;;;;;;;;;4939659;28;99116;-82
2023/05/20 13:30:00;;;;;;;2.13;1.08;;;;;;;;;;4946768;28;98582;-82
2023/05/20 13:32:27;;;;;;;1.77;0.90;;;;;;;;;;4944671;28;101279;-82
2023/05/20 13:34:55;;;;;;;1.95;1.00;;;;;;;;;;4944522;28;100086;-82
2023/05/20 13:37:22;;;;;;;1.50;0.98;;;;;;;;;;4946067;28;98346;-83
2023/05/20 13:39:50;;;;;;;1.65;1.00;;;;;;;;;;4945752;28;99286;-81
2023/05/20 13:42:16;;;;;;;1.42;0.82;;;;;;;;;;4934038;28;99134;-82
2023/05/20 13:44:43;;;;;;;1.52;0.98;;;;;;;;;;4948522;28;99317;-82
2023/05/20 13:47:10;;;;;;;1.55;0.80;;;;;;;;;;4950216;28;99510;-82
2023/05/20 13:49:36;;;;;;;;;;;;;;;;;;4945417;28;98578;-82
2023/05/20 13:52:03;;;;;;;1.27;0.90;;;;;;;;;;4947592;28;101536;-82
2023/05/20 13:54:30;;;;;;;1.25;0.82;;;;;;;;;;4938447;28;99807;-82
2023/05/20 13:56:56;;;;;;;1.98;1.10;;;;;;;;;;4951093;28;98684;-82
2023/05/20 13:59:23;;;;;;;1.50;1.00;;;;;;;;;;4950893;28;99826;-82
2023/05/20 14:01:49;;;;;;;2.25;1.10;;;;;;;;;;4963614;28;101247;-80
2023/05/20 14:04:16;;;;;;;1.42;1.10;;;;;;;;;;4983254;28;98746;-82
2023/05/20 14:06:43;;;;;;;1.52;1.00;;;;;;;;;;4976014;28;100124;-82
2023/05/20 14:09:10;;;;;;;1.40;0.90;;;;;;;;;;4950764;28;99901;-82
2023/05/20 14:11:36;;;;;;;1.60;0.85;;;;;;;;;;4957147;28;99598;-81
2023/05/20 14:14:03;;;;;;;1.90;1.00;;;;;;;;;;4949387;28;99180;-82
2023/05/20 14:16:29;;;;;;;2.35;1.10;;;;;;;;;;4945535;28;99412;-80
2023/05/20 14:18:56;;;;;;;1.42;0.93;;;;;;;;;;4945780;28;98866;-81
2023/05/20 14:21:23;;;;;;;1.02;0.90;;;;;;;;;;4944385;28;99387;-82
2023/05/20 14:23:50;;;;;;;1.42;1.00;;;;;;;;;;4945619;28;99063;-82
2023/05/20 14:26:16;;;;;;;2.22;1.10;;;;;;;;;;4947953;28;98790;-82
2023/05/20 14:28:43;;;;;;;1.70;1.00;;;;;;;;;;4945430;28;99071;-82
2023/05/20 14:31:10;;;;;;;1.90;1.00;;;;;;;;;;4945563;28;101888;-82
2023/05/20 14:33:36;;;;;;;2.67;1.10;;;;;;;;;;4942469;28;102920;-82
2023/05/20 14:36:03;;;;;;;2.10;1.00;;;;;;;;;;4945114;28;98586;-81
2023/05/20 14:38:30;;;;;;;1.48;1.00;;;;;;;;;;4947280;28;98820;-80
2023/05/20 14:40:56;;;;;;;1.35;0.88;;;;;;;;;;4947537;28;98902;-82
2023/05/20 14:43:23;;;;;;;1.60;1.08;;;;;;;;;;4949325;28;100151;-81